Time;durP1;ratioP1;P1;durP2;ratioP2;P2;SDS_P1;SDS_P2;PMS_P1;PMS_P2;Temp;Humidity;BMP_temperature;BMP_pressure;BME280_temperature;BME280_humidity;BME280_pressure;Samples;Min_cycle;Max_cycle;Signal;HPM_P1;HPM_P2
2023/03/02 00:01:55;;;;;;;77.47;12.88;;;1.00;23.40;;;;;;4989125;28;20190;-83
2023/03/02 00:04:43;;;;;;;81.30;13.30;;;1.00;21.70;;;;;;4988099;28;20171;-83
2023/03/02 00:07:13;;;;;;;76.20;11.82;;;1.10;19.90;;;;;;4988333;28;20164;-82
2023/03/02 00:09:39;;;;;;;79.38;12.60;;;1.20;12.10;;;;;;4987890;28;20168;-83
2023/03/02 00:12:06;;;;;;;76.35;12.38;;;1.30;9.20;;;;;;4991991;28;20194;-83
2023/03/02 00:14:32;;;;;;;80.20;13.05;;;1.50;5.20;;;;;;4992347;28;20167;-83
2023/03/02 00:16:58;;;;;;;76.93;11.60;;;1.50;1.00;;;;;;4992544;28;20221;-83
2023/03/02 00:19:23;;;;;;;77.10;11.20;;;1.60;1.00;;;;;;4992405;28;20247;-83
2023/03/02 00:21:49;;;;;;;74.73;10.73;;;1.80;1.00;;;;;;4992893;28;20450;-83
2023/03/02 00:24:15;;;;;;;75.87;11.50;;;1.80;1.00;;;;;;4992516;28;20182;-83
2023/03/02 00:26:41;;;;;;;80.97;11.85;;;1.90;1.00;;;;;;4992544;28;20171;-83
2023/03/02 00:29:07;;;;;;;76.70;11.15;;;1.80;1.00;;;;;;4991794;28;20175;-83
2023/03/02 00:31:33;;;;;;;76.22;11.48;;;1.80;1.00;;;;;;5002960;28;20204;-83
2023/03/02 00:33:59;;;;;;;78.70;11.33;;;1.80;1.00;;;;;;5008662;28;20198;-83
2023/03/02 00:36:25;;;;;;;75.80;11.37;;;1.80;1.00;;;;;;5009505;28;20196;-83
2023/03/02 00:38:51;;;;;;;77.75;11.23;;;1.80;1.00;;;;;;4991768;28;20179;-83
2023/03/02 00:41:20;;;;;;;76.45;12.27;;;1.70;1.00;;;;;;5009624;28;20175;-83
2023/03/02 00:43:46;;;;;;;77.15;11.90;;;1.50;1.90;;;;;;5009682;28;20213;-83
2023/03/02 00:46:14;;;;;;;76.25;10.35;;;1.30;5.70;;;;;;4992090;28;20166;-83
2023/03/02 00:48:41;;;;;;;74.40;10.23;;;1.20;10.70;;;;;;5009311;28;20167;-83
2023/03/02 00:51:07;;;;;;;78.82;11.77;;;1.20;11.70;;;;;;4992239;28;20167;-83
2023/03/02 00:53:34;;;;;;;77.93;11.93;;;1.00;14.50;;;;;;5009504;28;20167;-83
2023/03/02 00:56:01;;;;;;;74.72;10.75;;;0.90;18.80;;;;;;5009485;28;20170;-83
2023/03/02 00:58:30;;;;;;;74.75;11.57;;;0.80;22.40;;;;;;5009101;28;20228;-83
2023/03/02 01:00:57;;;;;;;76.85;11.65;;;0.70;25.30;;;;;;5009355;28;20610;-83
2023/03/02 01:03:23;;;;;;;75.60;11.50;;;0.60;28.20;;;;;;5009427;28;20604;-83
2023/03/02 01:05:48;;;;;;;75.60;10.60;;;0.50;31.50;;;;;;5009890;28;20167;-84
2023/03/02 01:08:15;;;;;;;73.77;11.53;;;0.40;34.50;;;;;;5009754;28;20192;-84
2023/03/02 01:10:41;;;;;;;73.97;11.50;;;0.40;37.30;;;;;;5009299;28;20167;-83
2023/03/02 01:13:07;;;;;;;89.13;12.03;;;0.30;40.00;;;;;;4992438;28;20203;-83
2023/03/02 01:15:34;;;;;;;78.53;13.13;;;0.30;40.00;;;;;;5009704;28;20413;-84
2023/03/02 01:18:01;;;;;;;75.22;12.43;;;0.30;41.60;;;;;;5009894;28;20198;-84
2023/03/02 01:20:27;;;;;;;81.72;12.88;;;0.30;41.30;;;;;;5009671;28;20162;-83
2023/03/02 01:22:53;;;;;;;80.47;14.13;;;0.20;45.60;;;;;;5008515;28;20195;-84
2023/03/02 01:25:18;;;;;;;78.67;12.20;;;0.20;46.50;;;;;;4994028;28;20167;-82
2023/03/02 01:27:44;;;;;;;77.60;11.53;;;0.20;47.50;;;;;;5011484;28;20181;-83
2023/03/02 01:30:10;;;;;;;76.03;12.07;;;0.10;48.40;;;;;;5011109;28;20226;-84
2023/03/02 01:32:36;;;;;;;80.15;12.90;;;0.10;50.10;;;;;;5010768;28;20210;-83
2023/03/02 01:35:02;;;;;;;88.83;13.13;;;0.10;51.80;;;;;;4993213;28;20183;-83
2023/03/02 01:37:28;;;;;;;77.78;12.25;;;0.10;52.30;;;;;;5010252;28;20508;-83
2023/03/02 01:39:54;;;;;;;77.30;13.20;;;0.00;52.60;;;;;;5011626;28;20254;-83
2023/03/02 01:42:19;;;;;;;76.73;12.13;;;0.00;53.70;;;;;;5010870;28;20457;-83
2023/03/02 01:44:51;;;;;;;82.00;13.30;;;0.00;53.30;;;;;;4993451;28;20181;-83
2023/03/02 01:47:33;;;;;;;80.43;13.45;;;-0.10;54.10;;;;;;4977630;28;20171;-82
2023/03/02 01:50:16;;;;;;;75.82;11.77;;;-0.10;56.60;;;;;;5011055;28;20211;-83
2023/03/02 01:52:42;;;;;;;79.85;14.32;;;-0.20;61.70;;;;;;5010941;28;20198;-83
2023/03/02 01:55:10;;;;;;;77.20;13.30;;;-0.20;64.60;;;;;;5011435;28;20222;-83
2023/03/02 01:57:42;;;;;;;80.85;13.35;;;-0.20;66.40;;;;;;4993687;28;20428;-83
2023/03/02 02:00:18;;;;;;;76.20;13.20;;;-0.10;66.30;;;;;;5011319;28;20171;-83
2023/03/02 02:02:45;;;;;;;80.40;14.13;;;-0.10;62.40;;;;;;5010746;28;20213;-83
2023/03/02 02:05:18;;;;;;;78.65;15.88;;;-0.10;62.70;;;;;;5010231;28;20167;-83
2023/03/02 02:07:44;;;;;;;79.60;16.00;;;-0.20;64.30;;;;;;5010458;28;20557;-83
2023/03/02 02:10:11;;;;;;;78.67;13.77;;;-0.30;64.50;;;;;;5010857;28;20166;-83
2023/03/02 02:12:37;;;;;;;82.75;14.27;;;-0.30;67.20;;;;;;5010308;28;20434;-82
2023/03/02 02:15:15;;;;;;;78.60;13.90;;;-0.20;71.10;;;;;;5010123;28;20166;-83
2023/03/02 02:17:41;;;;;;;77.13;14.25;;;-0.30;69.80;;;;;;5010078;28;20433;-83
2023/03/02 02:20:23;;;;;;;80.53;12.45;;;-0.30;72.50;;;;;;5010408;28;20181;-83
2023/03/02 02:23:37;;;;;;;77.45;11.88;;;-0.20;71.20;;;;;;5010073;28;20265;-83
2023/03/02 02:26:08;;;;;;;79.53;13.77;;;-0.20;66.00;;;;;;5012957;28;20185;-83
2023/03/02 02:28:57;;;;;;;79.45;14.40;;;-0.20;63.40;;;;;;4992945;28;20171;-83
2023/03/02 02:31:47;;;;;;;79.03;12.77;;;-0.30;64.50;;;;;;5009735;28;20254;-83
2023/03/02 02:34:38;;;;;;;77.90;13.98;;;-0.30;67.50;;;;;;5009873;28;20560;-83
2023/03/02 02:37:32;;;;;;;77.50;13.75;;;-0.30;67.60;;;;;;4992494;28;20175;-83
2023/03/02 02:39:59;;;;;;;77.00;13.68;;;-0.30;72.10;;;;;;4991988;28;20200;-83
2023/03/02 02:42:33;;;;;;;78.47;12.90;;;-0.40;70.10;;;;;;5009693;28;20217;-83
2023/03/02 02:45:16;;;;;;;79.15;13.50;;;-0.40;74.80;;;;;;5009868;28;20147;-84
2023/03/02 02:47:42;;;;;;;81.25;14.90;;;-0.40;75.80;;;;;;5010177;28;20151;-84
2023/03/02 02:50:20;;;;;;;79.50;14.00;;;-0.50;75.00;;;;;;5008892;28;20163;-83
2023/03/02 02:52:54;;;;;;;79.07;15.38;;;-0.40;75.60;;;;;;5009376;28;20187;-83
2023/03/02 02:55:22;;;;;;;78.88;13.73;;;-0.50;76.30;;;;;;5009016;28;20184;-83
2023/03/02 02:57:54;;;;;;;76.95;13.63;;;-0.40;72.80;;;;;;5009413;28;20273;-83
2023/03/02 03:00:21;;;;;;;77.85;14.02;;;-0.50;75.40;;;;;;5009987;28;20237;-83
2023/03/02 03:02:54;;;;;;;81.18;15.05;;;-0.40;73.80;;;;;;4992420;28;20218;-83
2023/03/02 03:05:20;;;;;;;80.07;15.15;;;-0.50;72.00;;;;;;4992012;28;20154;-83
2023/03/02 03:07:46;;;;;;;79.07;13.97;;;-0.50;73.30;;;;;;5009732;28;20224;-83
2023/03/02 03:10:25;;;;;;;78.70;14.00;;;-0.60;77.40;;;;;;5009798;28;20167;-83
2023/03/02 03:12:51;;;;;;;78.25;15.57;;;-0.60;78.80;;;;;;5009509;28;20524;-83
2023/03/02 03:15:17;;;;;;;79.95;15.50;;;-0.60;75.00;;;;;;5009556;28;20171;-84
2023/03/02 03:17:54;;;;;;;77.20;14.32;;;-0.60;74.80;;;;;;5009697;28;20226;-84
2023/03/02 03:20:21;;;;;;;82.63;14.82;;;-0.70;77.90;;;;;;5009758;28;20210;-84
2023/03/02 03:22:46;;;;;;;81.22;16.48;;;-0.70;81.10;;;;;;5009304;28;20203;-84
2023/03/02 03:25:14;;;;;;;79.63;14.57;;;-0.70;84.20;;;;;;4991815;28;20167;-84
2023/03/02 03:27:41;;;;;;;77.88;18.17;;;-0.70;85.00;;;;;;5009178;28;20466;-84
2023/03/02 03:30:13;;;;;;;80.80;17.92;;;-0.70;87.30;;;;;;5009168;28;20222;-84
2023/03/02 03:32:39;;;;;;;81.60;16.17;;;-0.70;87.30;;;;;;5009725;28;20277;-84
2023/03/02 03:35:09;;;;;;;83.20;18.65;;;-0.70;79.80;;;;;;5009627;28;20230;-83
2023/03/02 03:37:37;;;;;;;83.70;17.23;;;-0.70;78.40;;;;;;4992039;28;20174;-83
2023/03/02 03:40:04;;;;;;;83.50;15.55;;;-0.70;79.90;;;;;;5008977;28;20189;-84
2023/03/02 03:42:30;;;;;;;79.20;14.00;;;-0.70;82.00;;;;;;5008949;28;20191;-84
2023/03/02 03:44:56;;;;;;;83.75;14.95;;;-0.70;80.10;;;;;;5008489;28;20198;-84
2023/03/02 03:47:22;;;;;;;80.77;15.90;;;-0.70;83.50;;;;;;5009593;28;20225;-84
2023/03/02 03:49:48;;;;;;;84.70;17.60;;;-0.70;85.30;;;;;;4991537;28;20410;-83
2023/03/02 03:52:13;;;;;;;82.70;16.87;;;-0.80;83.50;;;;;;4992458;28;20197;-83
2023/03/02 03:54:39;;;;;;;82.80;18.03;;;-0.90;89.20;;;;;;5008666;28;20170;-84
2023/03/02 03:57:05;;;;;;;77.00;19.83;;;-0.80;91.40;;;;;;5008679;28;20463;-84
2023/03/02 03:59:32;;;;;;;84.20;21.87;;;-0.80;91.60;;;;;;5009040;28;20167;-84
2023/03/02 04:02:00;;;;;;;75.90;19.45;;;-0.90;91.60;;;;;;5008814;28;20446;-83
2023/03/02 04:04:29;;;;;;;83.18;22.90;;;-0.80;92.00;;;;;;5008740;28;20159;-83
2023/03/02 04:06:55;;;;;;;80.65;21.25;;;-0.90;90.10;;;;;;5009137;28;20594;-84
2023/03/02 04:09:23;;;;;;;79.63;20.40;;;-0.90;89.40;;;;;;5008837;28;20236;-84
2023/03/02 04:11:51;;;;;;;80.88;24.63;;;-0.90;91.70;;;;;;5008431;28;20179;-84
2023/03/02 04:14:18;;;;;;;81.38;23.98;;;-0.90;92.00;;;;;;5008586;28;20178;-83
2023/03/02 04:16:44;;;;;;;82.35;22.35;;;-0.90;91.90;;;;;;5008528;28;20247;-84
2023/03/02 04:19:11;;;;;;;84.05;24.85;;;-0.80;91.20;;;;;;5007557;28;20181;-84
2023/03/02 04:21:43;;;;;;;81.82;21.27;;;-0.90;88.70;;;;;;5007872;28;20549;-84
2023/03/02 04:24:11;;;;;;;83.35;18.52;;;-0.90;89.90;;;;;;4991053;28;20150;-83
2023/03/02 04:26:38;;;;;;;84.07;23.05;;;-0.90;86.80;;;;;;5007111;28;20173;-84
2023/03/02 04:29:08;;;;;;;82.00;22.08;;;-0.90;90.30;;;;;;5007921;28;20169;-83
2023/03/02 04:31:35;;;;;;;82.93;23.63;;;-1.00;91.70;;;;;;5007737;28;20220;-84
2023/03/02 04:34:04;;;;;;;82.25;21.65;;;-1.00;94.10;;;;;;5006462;28;20178;-84
2023/03/02 04:36:32;;;;;;;83.28;27.02;;;-1.00;94.90;;;;;;5006171;28;20206;-84
2023/03/02 04:38:57;;;;;;;88.72;25.42;;;-1.00;93.90;;;;;;5006095;28;20170;-84
2023/03/02 04:41:23;;;;;;;84.70;28.00;;;-1.10;93.00;;;;;;5007160;28;20175;-83
2023/03/02 04:43:51;;;;;;;82.77;26.27;;;-1.10;93.60;;;;;;5007092;28;20739;-83
2023/03/02 04:46:23;;;;;;;86.97;31.20;;;-1.10;95.00;;;;;;5005927;28;20577;-83
2023/03/02 04:48:48;;;;;;;86.47;31.65;;;-1.20;96.20;;;;;;5005355;28;20170;-83
2023/03/02 04:51:22;;;;;;;85.20;29.27;;;-1.20;97.30;;;;;;5005568;28;20171;-83
2023/03/02 04:53:50;;;;;;;82.95;28.35;;;-1.20;97.20;;;;;;5007547;28;20155;-83
2023/03/02 04:56:15;;;;;;;85.82;28.25;;;-1.20;97.50;;;;;;4993056;28;20216;-84
2023/03/02 04:58:41;;;;;;;83.57;28.40;;;-1.20;94.60;;;;;;5010465;28;20170;-83
2023/03/02 05:01:09;;;;;;;83.07;28.30;;;-1.20;95.30;;;;;;5010216;28;20177;-83
2023/03/02 05:03:35;;;;;;;83.78;29.25;;;-1.10;95.20;;;;;;4993037;28;20453;-84
2023/03/02 05:06:02;;;;;;;86.77;29.20;;;-1.10;94.40;;;;;;5010117;28;20182;-84
2023/03/02 05:08:29;;;;;;;81.32;24.10;;;-1.20;93.60;;;;;;5010749;28;20223;-83
2023/03/02 05:10:54;;;;;;;85.75;25.17;;;-1.10;95.70;;;;;;5010482;28;20159;-83
2023/03/02 05:13:20;;;;;;;83.63;26.80;;;-1.10;95.40;;;;;;5009186;28;20208;-84
2023/03/02 05:15:46;;;;;;;84.00;24.70;;;-1.10;95.30;;;;;;5010321;28;20440;-83
2023/03/02 05:18:12;;;;;;;84.20;22.83;;;-1.20;95.50;;;;;;5010450;28;20417;-84
2023/03/02 05:20:39;;;;;;;80.03;24.20;;;-1.10;95.20;;;;;;5010057;28;20170;-84
2023/03/02 05:23:07;;;;;;;82.50;25.60;;;-1.20;94.20;;;;;;5010089;28;20246;-84
2023/03/02 05:25:37;;;;;;;84.78;27.42;;;-1.20;95.40;;;;;;4992434;28;20171;-83
2023/03/02 05:28:04;;;;;;;85.13;27.10;;;-1.20;95.00;;;;;;5008926;28;20155;-84
2023/03/02 05:30:31;;;;;;;83.03;23.95;;;-1.30;96.20;;;;;;5009832;28;20171;-83
2023/03/02 05:32:57;;;;;;;84.88;28.77;;;-1.30;97.40;;;;;;5009226;28;20197;-84
2023/03/02 05:35:23;;;;;;;85.53;28.13;;;-1.30;95.50;;;;;;5009558;28;20171;-84
2023/03/02 05:37:49;;;;;;;87.05;28.52;;;-1.30;94.60;;;;;;5009082;28;20177;-84
2023/03/02 05:40:18;;;;;;;87.88;28.88;;;-1.40;95.40;;;;;;5009186;28;20174;-84
2023/03/02 05:42:44;;;;;;;83.03;29.95;;;-1.40;96.80;;;;;;5009272;28;20186;-84
2023/03/02 05:45:28;;;;;;;85.35;27.67;;;-1.40;98.30;;;;;;4992189;28;20178;-84
2023/03/02 05:47:54;;;;;;;81.93;28.08;;;-1.40;97.30;;;;;;5010005;28;20162;-84
2023/03/02 05:50:20;;;;;;;81.50;27.92;;;-1.40;98.70;;;;;;5009112;28;20184;-84
2023/03/02 05:52:46;;;;;;;81.05;28.17;;;-1.40;98.30;;;;;;5009443;28;20190;-84
2023/03/02 05:55:13;;;;;;;79.47;26.17;;;-1.40;95.90;;;;;;5008901;28;20171;-85
2023/03/02 05:57:39;;;;;;;82.10;26.75;;;-1.40;96.10;;;;;;5008253;28;20454;-85
2023/03/02 06:00:07;;;;;;;80.90;25.10;;;-1.40;97.40;;;;;;4990651;28;20181;-85
2023/03/02 06:02:32;;;;;;;80.38;26.10;;;-1.50;97.40;;;;;;5008926;28;20190;-83
2023/03/02 06:04:58;;;;;;;84.07;28.07;;;-1.50;97.30;;;;;;5009231;28;20169;-84
2023/03/02 06:07:26;;;;;;;80.30;26.03;;;-1.50;99.30;;;;;;5008768;28;20190;-84
2023/03/02 06:09:51;;;;;;;82.15;27.00;;;-1.50;99.90;;;;;;5009021;28;20159;-84
2023/03/02 06:12:21;;;;;;;82.80;26.03;;;-1.50;99.90;;;;;;5009079;28;20243;-85
2023/03/02 06:14:46;;;;;;;80.40;24.00;;;-1.50;99.90;;;;;;5009025;28;20441;-85
2023/03/02 06:17:12;;;;;;;79.90;24.30;;;-1.50;99.90;;;;;;5008712;28;20174;-85
2023/03/02 06:19:38;;;;;;;84.00;24.98;;;-1.40;99.90;;;;;;5008836;28;20186;-85
2023/03/02 06:22:10;;;;;;;85.43;26.17;;;-1.50;99.90;;;;;;4991176;28;20205;-84
2023/03/02 06:24:37;;;;;;;84.97;22.90;;;-1.40;99.90;;;;;;5008914;28;20159;-84
2023/03/02 06:27:03;;;;;;;83.90;26.10;;;-1.50;99.90;;;;;;5009845;28;20201;-84
2023/03/02 06:29:28;;;;;;;85.10;23.13;;;-1.50;99.90;;;;;;5009009;28;20155;-84
2023/03/02 06:31:54;;;;;;;85.30;25.13;;;-1.40;99.90;;;;;;5008983;28;20206;-85
2023/03/02 06:34:20;;;;;;;84.53;24.17;;;-1.50;99.20;;;;;;5010356;28;20210;-84
2023/03/02 06:36:46;;;;;;;88.77;25.70;;;-1.40;99.90;;;;;;5009992;28;20226;-84
2023/03/02 06:39:14;;;;;;;86.23;22.27;;;-1.50;99.90;;;;;;5007510;28;20159;-84
2023/03/02 06:41:44;;;;;;;81.15;25.45;;;-1.50;99.90;;;;;;5005847;28;20185;-84
2023/03/02 06:44:11;;;;;;;80.47;22.92;;;-1.40;99.90;;;;;;5005455;28;20194;-84
2023/03/02 06:46:38;;;;;;;80.85;22.42;;;-1.30;99.90;;;;;;4987794;28;20177;-83
2023/03/02 06:49:04;;;;;;;83.65;24.02;;;-1.20;99.30;;;;;;5004542;28;20159;-84
2023/03/02 06:51:30;;;;;;;84.20;28.65;;;-1.20;99.20;;;;;;5004807;28;20190;-84
2023/03/02 06:53:56;;;;;;;88.10;25.70;;;-1.10;99.30;;;;;;5004707;28;20298;-84
2023/03/02 06:56:22;;;;;;;77.90;24.55;;;-1.10;99.60;;;;;;5004771;28;20413;-84
2023/03/02 06:58:48;;;;;;;80.72;24.05;;;-1.10;99.30;;;;;;5005873;28;20175;-84
2023/03/02 07:01:14;;;;;;;83.13;24.30;;;-1.10;99.60;;;;;;5006026;28;20600;-83
2023/03/02 07:03:40;;;;;;;87.32;25.77;;;-1.00;99.90;;;;;;5005073;28;20186;-83
2023/03/02 07:06:06;;;;;;;83.03;24.90;;;-1.00;99.90;;;;;;5006320;28;20235;-83
2023/03/02 07:08:32;;;;;;;83.27;24.00;;;-1.00;99.90;;;;;;5006872;28;20410;-83
2023/03/02 07:10:58;;;;;;;82.45;23.85;;;-0.90;99.90;;;;;;5005444;28;20222;-83
2023/03/02 07:13:24;;;;;;;79.97;24.80;;;-0.90;99.90;;;;;;5006021;28;20201;-82
2023/03/02 07:15:50;;;;;;;83.83;25.10;;;-0.90;99.90;;;;;;5005520;28;20174;-83
2023/03/02 07:18:15;;;;;;;80.60;23.87;;;-0.90;99.80;;;;;;5006547;28;20491;-83
2023/03/02 07:20:41;;;;;;;83.27;23.60;;;-0.80;99.90;;;;;;5004881;28;20174;-83
2023/03/02 07:23:07;;;;;;;83.97;22.20;;;-0.70;99.90;;;;;;5006299;28;20511;-83
2023/03/02 07:25:33;;;;;;;82.70;20.50;;;-0.60;98.20;;;;;;4989277;28;20175;-83
2023/03/02 07:27:58;;;;;;;83.27;20.30;;;-0.50;96.50;;;;;;5006762;28;20195;-83
2023/03/02 07:30:24;;;;;;;84.73;20.03;;;-0.40;94.90;;;;;;5006986;28;20410;-83
2023/03/02 07:32:50;;;;;;;80.90;19.13;;;-0.40;92.90;;;;;;5005880;28;20187;-83
2023/03/02 07:35:16;;;;;;;80.70;18.40;;;-0.30;93.60;;;;;;5007086;28;20665;-83
2023/03/02 07:37:43;;;;;;;87.05;19.60;;;-0.20;92.80;;;;;;5007135;28;20435;-83
2023/03/02 07:40:10;;;;;;;83.30;20.33;;;-0.10;90.10;;;;;;5006867;28;20171;-83
2023/03/02 07:42:37;;;;;;;78.10;16.73;;;-0.10;91.20;;;;;;5006761;28;20204;-83
2023/03/02 07:45:04;;;;;;;83.57;20.90;;;0.00;90.80;;;;;;5007183;28;20158;-83
2023/03/02 07:47:30;;;;;;;82.65;18.77;;;0.00;91.70;;;;;;5007350;28;20162;-83
2023/03/02 07:49:56;;;;;;;83.82;19.98;;;0.10;91.50;;;;;;5007552;28;20191;-83
2023/03/02 07:52:22;;;;;;;84.30;17.80;;;0.20;88.30;;;;;;5007754;28;20249;-83
2023/03/02 07:54:47;;;;;;;90.73;17.93;;;0.30;86.60;;;;;;5007521;28;20170;-83
2023/03/02 07:57:15;;;;;;;80.10;17.50;;;0.30;86.30;;;;;;5007423;28;20234;-83
2023/03/02 07:59:41;;;;;;;84.05;18.50;;;0.40;82.20;;;;;;5007419;28;20445;-83
2023/03/02 08:02:19;;;;;;;85.68;19.52;;;0.40;83.60;;;;;;5006997;28;20191;-82
2023/03/02 08:04:45;;;;;;;81.70;18.13;;;0.50;83.90;;;;;;5007722;28;20171;-83
2023/03/02 08:07:11;;;;;;;86.00;18.92;;;0.60;82.20;;;;;;5007577;28;20181;-82
2023/03/02 08:09:39;;;;;;;84.50;19.80;;;0.60;79.30;;;;;;5007693;28;20250;-82
2023/03/02 08:12:07;;;;;;;79.13;16.35;;;0.70;78.60;;;;;;5007252;28;20187;-82
2023/03/02 08:14:32;;;;;;;85.80;17.85;;;0.70;77.90;;;;;;5006938;28;20661;-82
2023/03/02 08:16:58;;;;;;;80.00;16.80;;;0.80;78.50;;;;;;5007935;28;20163;-83
2023/03/02 08:19:25;;;;;;;80.27;15.00;;;0.80;73.00;;;;;;5007441;28;20188;-82
2023/03/02 08:21:51;;;;;;;89.68;16.35;;;0.90;71.10;;;;;;4990082;28;20881;-83
2023/03/02 08:24:16;;;;;;;78.50;13.75;;;0.90;70.00;;;;;;5007516;28;20170;-83
2023/03/02 08:26:42;;;;;;;80.37;14.10;;;0.90;67.90;;;;;;5007158;28;20163;-83
2023/03/02 08:29:08;;;;;;;94.53;16.27;;;0.90;66.80;;;;;;5006893;28;20169;-83
2023/03/02 08:31:34;;;;;;;86.10;16.10;;;1.00;66.00;;;;;;5008171;28;20228;-83
2023/03/02 08:34:00;;;;;;;79.83;14.40;;;1.10;64.10;;;;;;4992805;28;20170;-83
2023/03/02 08:36:26;;;;;;;81.80;14.37;;;1.20;57.70;;;;;;4993329;28;20235;-83
2023/03/02 08:38:52;;;;;;;76.93;13.73;;;1.30;55.70;;;;;;5010499;28;20416;-83
2023/03/02 08:41:20;;;;;;;85.38;13.65;;;1.30;50.50;;;;;;5010511;28;20477;-83
2023/03/02 08:43:47;;;;;;;82.47;13.75;;;1.30;51.70;;;;;;5010555;28;20190;-83
2023/03/02 08:46:15;;;;;;;81.22;14.18;;;1.40;48.70;;;;;;4992653;28;20163;-84
2023/03/02 08:48:42;;;;;;;82.10;13.75;;;1.50;47.80;;;;;;5010066;28;20159;-83
2023/03/02 08:51:12;;;;;;;82.93;14.50;;;1.60;46.30;;;;;;5009960;28;20202;-83
2023/03/02 08:53:40;;;;;;;76.93;13.95;;;1.60;46.40;;;;;;5010147;28;20163;-84
2023/03/02 08:56:19;;;;;;;86.03;15.85;;;1.70;45.50;;;;;;5009844;28;20175;-84
2023/03/02 08:58:46;;;;;;;77.88;13.95;;;1.80;39.80;;;;;;4993054;28;20255;-83
2023/03/02 09:01:24;;;;;;;79.95;14.85;;;1.90;40.80;;;;;;5009998;28;20170;-83
2023/03/02 09:03:50;;;;;;;81.82;14.13;;;2.00;37.70;;;;;;5010487;28;20212;-83
2023/03/02 09:06:16;;;;;;;81.30;15.27;;;2.10;35.50;;;;;;5009238;28;20186;-84
2023/03/02 09:08:43;;;;;;;79.50;14.50;;;2.20;34.70;;;;;;5009604;28;20162;-84
2023/03/02 09:11:09;;;;;;;81.28;13.95;;;2.30;31.40;;;;;;5009554;28;20162;-83
2023/03/02 09:13:35;;;;;;;83.47;15.18;;;2.40;31.10;;;;;;5009538;28;20174;-83
2023/03/02 09:16:01;;;;;;;98.67;14.40;;;2.40;27.50;;;;;;5009201;28;20182;-83
2023/03/02 09:18:28;;;;;;;79.13;14.90;;;2.50;23.00;;;;;;5009182;28;20413;-83
2023/03/02 09:20:57;;;;;;;77.47;11.90;;;2.50;18.80;;;;;;5009450;28;20167;-83
2023/03/02 09:23:24;;;;;;;81.80;14.23;;;2.60;15.20;;;;;;5009246;28;20186;-83
2023/03/02 09:25:51;;;;;;;86.70;13.60;;;2.70;15.00;;;;;;5009096;28;20216;-83
2023/03/02 09:28:23;;;;;;;81.78;13.25;;;2.80;12.90;;;;;;5009370;28;20173;-83
2023/03/02 09:30:50;;;;;;;79.60;12.48;;;2.90;11.80;;;;;;5009596;28;20167;-83
2023/03/02 09:33:16;;;;;;;80.45;13.00;;;3.00;2.80;;;;;;5009275;28;20182;-83
2023/03/02 09:35:42;;;;;;;82.50;15.70;;;3.10;1.00;;;;;;5008301;28;20173;-83
2023/03/02 09:38:11;;;;;;;80.13;13.20;;;3.20;1.00;;;;;;5008623;28;20410;-83
2023/03/02 09:40:53;;;;;;;81.40;13.52;;;3.30;1.00;;;;;;4990508;28;20170;-83
2023/03/02 09:43:18;;;;;;;83.28;14.40;;;3.40;1.00;;;;;;5007703;28;20178;-83
2023/03/02 09:45:52;;;;;;;81.70;14.40;;;3.60;1.00;;;;;;5008681;28;20174;-83
2023/03/02 09:48:34;;;;;;;81.00;11.60;;;3.70;1.00;;;;;;5008972;28;20233;-83
2023/03/02 09:51:42;;;;;;;75.57;10.63;;;3.80;1.00;;;;;;5009154;28;20150;-83
2023/03/02 09:54:22;;;;;;;75.97;12.07;;;4.00;1.00;;;;;;5008913;28;20207;-83
2023/03/02 09:56:56;;;;;;;77.60;11.63;;;4.10;1.00;;;;;;5008375;28;20173;-83
2023/03/02 09:59:36;;;;;;;78.05;11.75;;;4.30;1.00;;;;;;5009402;28;20151;-83
2023/03/02 10:02:29;;;;;;;77.68;11.45;;;4.40;1.00;;;;;;4991496;28;20228;-83
2023/03/02 10:04:59;;;;;;;78.47;11.82;;;4.50;1.00;;;;;;5008770;28;20170;-83
2023/03/02 10:07:30;;;;;;;75.28;11.35;;;4.60;1.00;;;;;;5008127;28;20245;-83
2023/03/02 10:10:08;;;;;;;79.82;11.98;;;4.80;1.00;;;;;;5007740;28;20167;-83
2023/03/02 10:12:46;;;;;;;76.53;12.63;;;5.00;1.00;;;;;;4991203;28;20263;-82
2023/03/02 10:15:35;;;;;;;80.25;12.45;;;5.20;1.00;;;;;;5008145;28;20197;-82
2023/03/02 10:18:28;;;;;;;76.22;11.32;;;5.30;1.00;;;;;;5008986;28;20522;-83
2023/03/02 10:21:26;;;;;;;76.53;11.70;;;5.60;1.00;;;;;;5008504;28;20152;-83
2023/03/02 10:24:12;;;;;;;75.05;10.90;;;5.60;1.00;;;;;;5008261;28;20717;-83
2023/03/02 10:26:42;;;;;;;79.32;13.40;;;5.70;1.00;;;;;;4990428;28;20159;-83
2023/03/02 10:29:19;;;;;;;79.50;12.10;;;5.90;1.00;;;;;;4990440;28;20570;-83
2023/03/02 10:31:51;;;;;;;77.85;11.35;;;6.10;1.00;;;;;;5007391;28;20198;-83
2023/03/02 10:34:18;;;;;;;81.57;12.40;;;6.40;1.00;;;;;;5007954;28;20551;-83
2023/03/02 10:36:46;;;;;;;79.20;11.60;;;6.60;1.00;;;;;;5008085;28;20167;-83
2023/03/02 10:39:16;;;;;;;79.78;12.13;;;6.80;1.00;;;;;;4993950;28;20192;-83
2023/03/02 10:41:56;;;;;;;76.68;12.82;;;6.90;1.00;;;;;;5007467;28;20183;-83
2023/03/02 10:44:31;;;;;;;79.57;11.05;;;6.70;1.00;;;;;;5007370;28;20161;-84
2023/03/02 10:46:58;;;;;;;77.07;13.05;;;6.90;1.00;;;;;;5007207;28;20155;-84
2023/03/02 10:49:31;;;;;;;79.50;11.63;;;7.20;1.00;;;;;;4990353;28;20167;-83
2023/03/02 10:52:09;;;;;;;80.45;11.93;;;7.40;1.00;;;;;;4990157;28;20305;-83
2023/03/02 10:54:35;;;;;;;81.28;12.68;;;7.40;1.00;;;;;;5007246;28;20150;-84
2023/03/02 10:57:04;;;;;;;72.83;11.47;;;7.60;1.00;;;;;;4990299;28;20174;-84
2023/03/02 10:59:42;;;;;;;75.78;11.30;;;7.70;1.00;;;;;;5006929;28;20402;-84
2023/03/02 11:02:12;;;;;;;75.22;12.15;;;7.80;1.00;;;;;;5006902;28;20210;-83
2023/03/02 11:04:38;;;;;;;77.53;12.85;;;7.70;1.00;;;;;;5006083;28;20155;-84
2023/03/02 11:07:11;;;;;;;75.93;11.50;;;7.60;1.00;;;;;;4989095;28;20163;-83
2023/03/02 11:09:38;;;;;;;81.82;12.82;;;7.80;1.00;;;;;;4992009;28;20440;-84
2023/03/02 11:12:12;;;;;;;74.63;11.05;;;8.00;1.00;;;;;;4989356;28;20214;-84
2023/03/02 11:14:37;;;;;;;74.70;11.18;;;8.20;1.00;;;;;;4990014;28;20305;-83
2023/03/02 11:17:29;;;;;;;78.00;13.00;;;8.40;1.00;;;;;;4989327;28;20171;-84
2023/03/02 11:19:55;;;;;;;77.68;11.80;;;8.70;1.00;;;;;;4989824;28;20202;-84
2023/03/02 11:22:37;;;;;;;77.27;13.17;;;8.90;1.00;;;;;;4988940;28;20233;-84
2023/03/02 11:25:06;;;;;;;79.03;12.48;;;8.90;1.00;;;;;;5007585;28;20666;-83
2023/03/02 11:27:40;;;;;;;76.22;11.68;;;9.00;1.00;;;;;;5008302;28;20155;-84
2023/03/02 11:32:57;;;;;;;77.10;12.50;;;9.00;1.00;;;;;;5025771;22;20231;-83
2023/03/02 11:35:33;;;;;;;76.20;10.98;;;9.00;1.00;;;;;;4956632;29;20159;-83
2023/03/02 11:38:09;;;;;;;78.32;12.23;;;8.90;1.00;;;;;;4956975;28;20164;-83
2023/03/02 11:40:48;;;;;;;79.15;12.82;;;9.10;1.00;;;;;;4958577;28;20152;-85
2023/03/02 11:43:14;;;;;;;81.13;12.50;;;9.20;1.00;;;;;;4956221;28;20200;-85
2023/03/02 11:45:44;;;;;;;83.40;13.90;;;9.40;1.00;;;;;;4957716;28;20659;-85
2023/03/02 11:48:36;;;;;;;77.07;11.77;;;9.40;1.00;;;;;;4957580;28;20152;-86
2023/03/02 11:51:04;;;;;;;75.80;11.85;;;9.50;1.00;;;;;;4958023;28;20158;-85
2023/03/02 11:53:42;;;;;;;77.82;12.63;;;9.50;1.00;;;;;;4957588;28;20187;-85
2023/03/02 11:56:08;;;;;;;78.75;12.00;;;9.50;1.00;;;;;;4956336;29;20174;-84
2023/03/02 11:58:34;;;;;;;77.90;12.33;;;9.60;1.00;;;;;;4956236;28;20627;-85
2023/03/02 12:01:01;;;;;;;81.40;14.13;;;9.70;1.00;;;;;;4957622;28;20408;-84
2023/03/02 12:03:30;;;;;;;76.30;11.07;;;9.70;1.00;;;;;;4957024;28;20290;-84
2023/03/02 12:06:03;;;;;;;81.80;13.23;;;9.90;1.00;;;;;;4956408;28;20167;-84
2023/03/02 12:08:34;;;;;;;76.55;11.00;;;10.00;1.00;;;;;;4956920;28;20152;-85
2023/03/02 12:11:04;;;;;;;78.50;12.68;;;10.10;1.00;;;;;;4955231;29;20160;-85
2023/03/02 12:13:36;;;;;;;74.63;11.32;;;10.10;1.00;;;;;;4957257;28;20663;-84
2023/03/02 12:16:03;;;;;;;75.57;10.57;;;10.10;1.00;;;;;;4956989;28;20567;-85
2023/03/02 12:18:50;;;;;;;77.22;11.63;;;10.00;1.00;;;;;;4956731;28;20164;-84
2023/03/02 12:21:24;;;;;;;77.88;11.27;;;10.10;1.00;;;;;;4956563;28;20163;-84
2023/03/02 12:23:50;;;;;;;75.75;11.13;;;10.20;1.00;;;;;;4956735;28;20582;-84
2023/03/02 12:26:18;;;;;;;78.50;11.80;;;10.10;1.00;;;;;;4957351;28;20168;-85
2023/03/02 12:28:58;;;;;;;73.22;10.00;;;10.20;1.00;;;;;;4955475;28;20221;-85
2023/03/02 12:31:25;;;;;;;77.50;10.68;;;10.30;1.00;;;;;;4955456;28;20187;-84
2023/03/02 12:33:51;;;;;;;73.25;10.88;;;10.30;1.00;;;;;;4956565;28;20176;-84
2023/03/02 12:36:40;;;;;;;77.97;10.45;;;10.20;1.00;;;;;;4955567;29;20255;-85
2023/03/02 12:39:26;;;;;;;72.10;9.70;;;10.10;1.00;;;;;;4957221;28;20196;-85
2023/03/02 12:42:26;;;;;;;75.85;10.95;;;10.20;1.00;;;;;;4962728;28;20204;-85
2023/03/02 12:45:12;;;;;;;75.07;10.75;;;10.40;1.00;;;;;;4956781;28;20157;-85
2023/03/02 12:47:43;;;;;;;77.22;11.30;;;10.30;1.00;;;;;;4957134;28;20232;-84
2023/03/02 12:50:24;;;;;;;75.97;10.18;;;10.30;1.00;;;;;;4956925;28;20148;-85
2023/03/02 12:53:17;;;;;;;73.57;9.82;;;10.30;1.00;;;;;;4954965;28;20212;-85